Terminal Aerodrome Forecast
Issued by NWS

Home | Current Version | Previous Version | Text Only | Print | Product List | Glossary On
Versions: 1 2 3 4 5 6 7 8 9 10 11 12 13 14 15 16
000
FTUS42 KMLB 180536
TAFLEE
TAF
KLEE 180536Z 1806/1906 VRB03KT P6SM SCT009 BKN025 OVC100
      TEMPO 1809/1812 5SM BR BKN008
     FM181300 21005KT P6SM SCT015 BKN250
     FM181600 25007KT P6SM VCTS SCT025CB SCT080 BKN150
     FM182100 28006KT P6SM SCT040 BKN250
     FM190000 20004KT P6SM FEW030 SCT120 BKN250=

USA.gov is the U.S. government's official web portal to all federal, state and local government web resources and services.